Time;durP1;ratioP1;P1;durP2;ratioP2;P2;SDS_P1;SDS_P2;PMS_P1;PMS_P2;Temp;Humidity;BMP_temperature;BMP_pressure;BME280_temperature;BME280_humidity;BME280_pressure;Samples;Min_cycle;Max_cycle;Signal;HPM_P1;HPM_P2
2022/11/27 00:00:31;;;;;;;0.10;0.10;;;7.90;99.90;;;;;;5087313;28;20174;-81
2022/11/27 00:02:56;;;;;;;0.10;0.10;;;7.90;99.90;;;;;;5069580;28;20246;-81
2022/11/27 00:05:22;;;;;;;0.10;0.10;;;7.90;99.90;;;;;;5070530;28;20208;-82
2022/11/27 00:07:47;;;;;;;0.10;0.10;;;7.70;99.90;;;;;;5067585;28;20193;-80
2022/11/27 00:10:13;;;;;;;0.10;0.10;;;7.80;99.90;;;;;;5069421;28;20270;-81
2022/11/27 00:12:38;;;;;;;0.10;0.10;;;7.90;99.90;;;;;;5069092;28;20230;-82
2022/11/27 00:15:04;;;;;;;0.10;0.10;;;7.90;99.90;;;;;;5069321;28;20341;-82
2022/11/27 00:17:30;;;;;;;0.10;0.10;;;7.90;99.90;;;;;;5068800;28;20173;-81
2022/11/27 00:19:55;;;;;;;0.10;0.10;;;7.90;99.90;;;;;;5067022;28;20222;-82
2022/11/27 00:22:21;;;;;;;0.00;0.00;;;7.90;99.90;;;;;;5066021;28;20283;-81
2022/11/27 00:24:46;;;;;;;0.10;0.10;;;7.80;99.90;;;;;;5066221;28;20242;-81
2022/11/27 00:27:12;;;;;;;0.10;0.10;;;7.80;99.90;;;;;;5068704;28;20198;-82
2022/11/27 00:29:37;;;;;;;0.10;0.10;;;7.90;99.90;;;;;;5064801;28;20212;-81
2022/11/27 00:32:06;;;;;;;0.00;0.00;;;7.80;99.90;;;;;;5066873;28;20220;-82
2022/11/27 00:34:32;;;;;;;0.10;0.10;;;7.90;99.90;;;;;;5064466;28;20220;-82
2022/11/27 00:36:58;;;;;;;0.10;0.10;;;7.90;99.90;;;;;;5065149;28;20189;-81
2022/11/27 00:39:23;;;;;;;0.10;0.10;;;7.90;99.90;;;;;;5065520;28;20193;-81
2022/11/27 00:41:49;;;;;;;0.10;0.10;;;7.90;99.90;;;;;;5067093;28;20199;-82
2022/11/27 00:44:14;;;;;;;0.10;0.10;;;7.90;99.90;;;;;;5080903;28;20209;-81
2022/11/27 00:46:40;;;;;;;0.10;0.10;;;7.90;99.90;;;;;;5063858;28;20219;-81
2022/11/27 00:49:07;;;;;;;0.10;0.10;;;7.90;99.90;;;;;;5066724;28;20290;-81
2022/11/27 00:51:33;;;;;;;0.10;0.10;;;7.90;99.90;;;;;;5066301;28;20203;-82
2022/11/27 00:53:59;;;;;;;0.03;0.03;;;7.90;99.90;;;;;;5068622;28;20233;-82
2022/11/27 00:56:31;;;;;;;0.10;0.10;;;7.60;99.90;;;;;;5067692;28;20216;-82
2022/11/27 00:58:57;;;;;;;0.30;0.30;;;7.60;99.90;;;;;;5068089;28;20218;-82
2022/11/27 01:01:28;;;;;;;0.10;0.10;;;7.50;99.90;;;;;;5067382;28;20189;-81
2022/11/27 01:03:56;;;;;;;0.10;0.10;;;7.40;99.90;;;;;;5067830;28;20285;-82
2022/11/27 01:06:23;;;;;;;0.00;0.00;;;7.50;99.90;;;;;;5068899;28;20528;-82
2022/11/27 01:08:49;;;;;;;0.10;0.10;;;7.50;99.90;;;;;;5069186;28;20209;-82
2022/11/27 01:11:25;;;;;;;0.10;0.10;;;7.60;99.90;;;;;;5069103;28;20197;-81
2022/11/27 01:13:52;;;;;;;0.10;0.10;;;7.70;99.90;;;;;;5067664;28;20214;-81
2022/11/27 01:16:21;;;;;;;0.10;0.10;;;7.80;99.90;;;;;;5070914;28;20249;-82
2022/11/27 01:18:48;;;;;;;0.10;0.10;;;7.70;99.90;;;;;;5086206;28;20221;-82
2022/11/27 01:21:16;;;;;;;0.10;0.10;;;7.80;99.90;;;;;;5085749;28;20188;-81
2022/11/27 01:23:41;;;;;;;0.10;0.10;;;7.80;99.90;;;;;;5084416;28;20204;-81
2022/11/27 01:26:09;;;;;;;0.10;0.10;;;7.80;99.90;;;;;;5084585;28;20200;-82
2022/11/27 01:28:35;;;;;;;0.10;0.10;;;7.90;99.90;;;;;;5084533;28;20222;-80
2022/11/27 01:31:10;;;;;;;0.10;0.10;;;7.90;99.90;;;;;;5077028;28;20183;-82
2022/11/27 01:33:36;;;;;;;0.10;0.10;;;7.90;99.90;;;;;;5074807;28;20209;-82
2022/11/27 01:36:04;;;;;;;0.10;0.10;;;7.80;99.90;;;;;;5076596;28;20186;-82
2022/11/27 01:38:30;;;;;;;0.10;0.10;;;7.90;99.90;;;;;;5091540;28;20246;-82
2022/11/27 01:41:07;;;;;;;0.10;0.10;;;7.80;99.90;;;;;;5075908;28;20208;-82
2022/11/27 01:43:38;;;;;;;0.10;0.10;;;7.70;99.90;;;;;;5072951;28;20583;-81
2022/11/27 01:46:09;;;;;;;0.10;0.10;;;7.80;99.90;;;;;;5074174;28;20197;-82
2022/11/27 01:48:35;;;;;;;0.10;0.10;;;7.90;99.90;;;;;;5072763;28;20597;-81
2022/11/27 01:51:01;;;;;;;0.10;0.10;;;7.90;99.90;;;;;;5073849;28;20182;-81
2022/11/27 01:53:26;;;;;;;0.10;0.10;;;8.00;99.90;;;;;;5071276;28;20186;-82
2022/11/27 01:55:57;;;;;;;0.10;0.10;;;7.80;99.90;;;;;;5090142;28;20183;-81
2022/11/27 01:58:27;;;;;;;0.10;0.10;;;7.80;99.90;;;;;;5073298;28;20251;-81
2022/11/27 02:00:52;;;;;;;0.10;0.10;;;7.70;99.90;;;;;;5071034;28;20262;-82
2022/11/27 02:03:18;;;;;;;0.10;0.10;;;7.80;99.90;;;;;;5073137;28;20686;-81
2022/11/27 02:05:44;;;;;;;0.10;0.10;;;7.70;99.90;;;;;;5072408;28;20202;-81
2022/11/27 02:08:12;;;;;;;0.10;0.10;;;7.70;99.90;;;;;;5071374;28;20190;-82
2022/11/27 02:11:02;;;;;;;0.10;0.10;;;7.50;99.90;;;;;;5089325;28;20215;-81
2022/11/27 02:13:52;;;;;;;0.10;0.10;;;7.70;99.90;;;;;;5073150;28;20654;-82
2022/11/27 02:16:23;;;;;;;0.10;0.10;;;7.70;99.90;;;;;;5071029;28;20607;-81
2022/11/27 02:18:54;;;;;;;0.00;0.00;;;7.40;99.90;;;;;;5071909;28;20289;-81
2022/11/27 02:22:08;;;;;;;0.07;0.07;;;7.30;99.90;;;;;;5070420;28;20173;-81
2022/11/27 02:25:01;;;;;;;0.00;0.00;;;7.40;99.90;;;;;;5028981;28;20315;-82
2022/11/27 02:27:43;;;;;;;0.10;0.10;;;7.50;99.90;;;;;;5028005;28;20230;-81
2022/11/27 02:30:09;;;;;;;0.10;0.10;;;7.70;99.90;;;;;;5074561;28;20267;-81
2022/11/27 02:32:59;;;;;;;0.10;0.10;;;7.80;99.90;;;;;;5068914;28;20196;-82
2022/11/27 02:35:38;;;;;;;0.07;0.07;;;7.80;99.90;;;;;;5066820;28;20252;-81
2022/11/27 02:38:06;;;;;;;0.10;0.10;;;7.80;99.90;;;;;;5067152;28;20209;-81
2022/11/27 02:41:05;;;;;;;0.10;0.10;;;7.80;99.90;;;;;;5066648;28;20201;-81
2022/11/27 02:43:37;;;;;;;0.10;0.10;;;7.50;99.90;;;;;;5067597;28;20196;-82
2022/11/27 02:46:05;;;;;;;0.10;0.10;;;7.50;99.90;;;;;;5069522;28;20285;-81
2022/11/27 02:48:37;;;;;;;0.10;0.10;;;7.50;99.90;;;;;;5067167;28;20261;-82
2022/11/27 02:51:04;;;;;;;0.10;0.10;;;7.40;99.90;;;;;;5065879;28;20186;-81
2022/11/27 02:53:36;;;;;;;0.10;0.10;;;7.40;99.90;;;;;;5065242;28;20189;-81
2022/11/27 02:56:07;;;;;;;0.10;0.10;;;7.40;99.90;;;;;;5069957;28;20215;-81
2022/11/27 02:58:35;;;;;;;0.10;0.10;;;7.50;99.90;;;;;;5069669;28;20226;-82
2022/11/27 03:01:02;;;;;;;0.10;0.10;;;7.50;99.90;;;;;;5068109;28;20201;-82
2022/11/27 03:03:33;;;;;;;0.10;0.10;;;7.60;99.90;;;;;;5070578;28;20189;-81
2022/11/27 03:06:05;;;;;;;0.10;0.10;;;7.60;99.90;;;;;;5068766;28;20795;-81
2022/11/27 03:08:55;;;;;;;0.00;0.00;;;7.60;99.90;;;;;;5068174;28;20209;-82
2022/11/27 03:11:20;;;;;;;0.10;0.10;;;7.50;99.90;;;;;;5061531;28;21114;-82
2022/11/27 03:13:52;;;;;;;0.00;0.00;;;7.20;99.90;;;;;;5069426;28;20267;-81
2022/11/27 03:16:42;;;;;;;0.10;0.10;;;7.20;99.90;;;;;;5070118;28;20179;-81
2022/11/27 03:19:20;;;;;;;0.10;0.10;;;7.30;99.90;;;;;;5070366;28;20182;-81
2022/11/27 03:21:50;;;;;;;0.10;0.10;;;7.40;99.90;;;;;;5065686;28;20186;-82
2022/11/27 03:24:16;;;;;;;0.10;0.10;;;7.40;99.90;;;;;;5068177;28;20201;-81
2022/11/27 03:26:42;;;;;;;0.10;0.10;;;7.40;99.90;;;;;;5068715;28;20195;-81
2022/11/27 03:29:20;;;;;;;0.10;0.10;;;7.40;99.90;;;;;;5069657;28;20231;-81
2022/11/27 03:31:46;;;;;;;0.10;0.10;;;7.30;99.90;;;;;;5066731;28;20204;-80
2022/11/27 03:34:12;;;;;;;0.10;0.10;;;7.50;99.90;;;;;;5068309;28;20685;-82
2022/11/27 03:36:37;;;;;;;0.10;0.10;;;7.50;99.90;;;;;;5067607;28;20269;-81
2022/11/27 03:39:03;;;;;;;0.10;0.10;;;7.50;99.90;;;;;;5068404;28;20185;-81
2022/11/27 03:41:46;;;;;;;0.10;0.10;;;7.50;99.90;;;;;;5068767;28;20185;-81
2022/11/27 03:44:33;;;;;;;0.10;0.10;;;7.50;99.90;;;;;;5070519;28;20208;-82
2022/11/27 03:47:28;;;;;;;0.10;0.10;;;7.40;99.90;;;;;;5067029;28;20692;-81
2022/11/27 03:50:17;;;;;;;0.10;0.10;;;7.10;99.90;;;;;;5066492;28;20297;-81
2022/11/27 03:52:58;;;;;;;0.10;0.10;;;7.00;99.90;;;;;;5064063;28;20215;-81
2022/11/27 03:55:33;;;;;;;0.03;0.03;;;7.00;99.90;;;;;;5064637;28;20569;-79
2022/11/27 03:58:09;;;;;;;0.00;0.00;;;6.80;99.90;;;;;;5081397;28;20617;-79
2022/11/27 04:00:39;;;;;;;0.10;0.10;;;6.70;99.90;;;;;;5065330;28;20293;-79
2022/11/27 04:03:08;;;;;;;0.10;0.10;;;6.40;99.90;;;;;;5065143;28;20272;-80
2022/11/27 04:05:34;;;;;;;0.10;0.10;;;6.50;99.90;;;;;;5063546;28;21164;-79
2022/11/27 04:07:59;;;;;;;0.10;0.10;;;6.50;99.90;;;;;;5066849;28;20182;-79
2022/11/27 04:10:25;;;;;;;0.00;0.00;;;6.60;99.90;;;;;;5066095;28;20205;-79
2022/11/27 04:12:50;;;;;;;0.07;0.07;;;6.50;99.90;;;;;;5064217;28;20215;-81
2022/11/27 04:15:16;;;;;;;0.10;0.10;;;6.50;99.90;;;;;;5065485;28;20247;-79
2022/11/27 04:17:41;;;;;;;0.00;0.00;;;6.50;99.90;;;;;;5065795;28;20216;-79
2022/11/27 04:20:08;;;;;;;0.10;0.10;;;6.50;99.90;;;;;;5063977;28;20646;-79
2022/11/27 04:22:34;;;;;;;0.10;0.10;;;6.50;99.90;;;;;;5065001;28;20189;-79
2022/11/27 04:24:59;;;;;;;0.10;0.10;;;6.60;99.90;;;;;;5080491;28;20216;-79
2022/11/27 04:27:25;;;;;;;0.10;0.10;;;6.70;99.90;;;;;;5065239;28;20237;-79
2022/11/27 04:29:50;;;;;;;0.10;0.10;;;6.80;99.90;;;;;;5062612;28;20232;-79
2022/11/27 04:32:16;;;;;;;0.10;0.10;;;6.70;99.90;;;;;;5063738;28;20193;-80
2022/11/27 04:34:41;;;;;;;0.10;0.10;;;6.50;99.90;;;;;;5063808;28;20259;-79
2022/11/27 04:37:07;;;;;;;0.10;0.10;;;6.30;99.90;;;;;;5064243;28;20757;-80
2022/11/27 04:39:33;;;;;;;0.10;0.10;;;6.40;99.90;;;;;;5063484;28;21054;-80
2022/11/27 04:41:58;;;;;;;0.10;0.10;;;6.20;99.90;;;;;;5064059;28;20220;-78
2022/11/27 04:44:24;;;;;;;0.10;0.10;;;6.20;99.90;;;;;;5063131;28;20949;-80
2022/11/27 04:46:49;;;;;;;0.10;0.10;;;6.00;99.90;;;;;;5064922;28;20176;-78
2022/11/27 04:49:15;;;;;;;0.10;0.10;;;6.20;99.90;;;;;;5065464;28;20295;-80
2022/11/27 04:51:40;;;;;;;0.10;0.10;;;6.30;99.90;;;;;;5063606;28;20184;-79
2022/11/27 04:54:06;;;;;;;0.10;0.10;;;6.40;99.90;;;;;;5063152;28;20288;-79
2022/11/27 04:56:31;;;;;;;0.10;0.10;;;6.30;99.90;;;;;;5063790;28;20998;-79
2022/11/27 04:58:57;;;;;;;0.10;0.10;;;6.20;99.90;;;;;;5061840;28;20203;-79
2022/11/27 05:01:22;;;;;;;0.10;0.10;;;6.10;99.90;;;;;;5062905;28;20199;-80
2022/11/27 05:03:48;;;;;;;0.10;0.10;;;6.00;99.90;;;;;;5064287;28;20217;-79
2022/11/27 05:06:14;;;;;;;0.10;0.10;;;6.10;99.90;;;;;;5062678;28;20229;-80
2022/11/27 05:08:40;;;;;;;0.10;0.10;;;6.00;99.90;;;;;;5062820;28;20212;-79
2022/11/27 05:11:16;;;;;;;0.10;0.10;;;6.10;99.90;;;;;;5062874;28;20670;-80
2022/11/27 05:13:42;;;;;;;0.10;0.10;;;5.90;99.90;;;;;;5062459;28;20724;-79
2022/11/27 05:16:08;;;;;;;0.10;0.10;;;6.00;99.90;;;;;;5063720;28;20188;-79
2022/11/27 05:18:34;;;;;;;0.10;0.10;;;6.00;99.90;;;;;;5061410;28;20189;-80
2022/11/27 05:21:03;;;;;;;0.10;0.10;;;6.00;99.90;;;;;;5061857;28;20550;-79
2022/11/27 05:23:29;;;;;;;0.10;0.10;;;6.00;99.90;;;;;;5062692;28;20178;-79
2022/11/27 05:25:55;;;;;;;0.00;0.00;;;5.70;99.90;;;;;;5079023;28;20220;-79
2022/11/27 05:28:20;;;;;;;0.00;0.00;;;5.70;99.90;;;;;;5061405;28;20220;-79
2022/11/27 05:30:46;;;;;;;0.10;0.10;;;5.50;99.90;;;;;;5060998;28;20192;-79
2022/11/27 05:33:13;;;;;;;0.03;0.03;;;5.50;99.90;;;;;;5061336;28;20239;-80
2022/11/27 05:35:38;;;;;;;0.10;0.10;;;5.40;99.90;;;;;;5061049;28;20278;-82
2022/11/27 05:38:04;;;;;;;0.07;0.07;;;5.40;99.90;;;;;;5060654;28;20191;-80
2022/11/27 05:40:30;;;;;;;0.10;0.10;;;5.20;99.90;;;;;;5062045;28;20185;-80
2022/11/27 05:42:55;;;;;;;0.10;0.10;;;5.00;99.90;;;;;;5064988;28;20242;-80
2022/11/27 05:45:21;;;;;;;0.00;0.00;;;5.00;99.90;;;;;;5064349;28;20197;-79
2022/11/27 05:47:46;;;;;;;0.10;0.10;;;4.80;99.90;;;;;;5063000;28;20177;-79
2022/11/27 05:50:12;;;;;;;0.00;0.00;;;4.80;99.90;;;;;;5063460;28;20232;-80
2022/11/27 05:52:38;;;;;;;0.10;0.10;;;4.70;99.90;;;;;;5063050;28;20206;-80
2022/11/27 05:55:03;;;;;;;0.10;0.10;;;4.70;99.90;;;;;;5061416;28;20538;-81
2022/11/27 05:57:29;;;;;;;0.10;0.10;;;4.80;99.90;;;;;;5062155;28;20189;-79
2022/11/27 05:59:56;;;;;;;0.10;0.10;;;4.80;99.90;;;;;;5062165;28;20243;-79
2022/11/27 06:02:22;;;;;;;0.00;0.00;;;4.90;99.90;;;;;;5061503;28;20683;-79
2022/11/27 06:04:48;;;;;;;0.00;0.00;;;4.90;99.90;;;;;;5062385;28;20216;-79
2022/11/27 06:07:13;;;;;;;0.10;0.10;;;4.90;99.90;;;;;;5060929;28;20190;-79
2022/11/27 06:09:39;;;;;;;0.10;0.10;;;4.90;99.90;;;;;;5063112;28;20202;-80
2022/11/27 06:12:05;;;;;;;0.10;0.10;;;5.10;99.90;;;;;;5062271;28;20185;-79
2022/11/27 06:14:33;;;;;;;0.00;0.00;;;5.20;99.90;;;;;;5062653;28;20999;-79
2022/11/27 06:16:58;;;;;;;0.00;0.00;;;5.20;99.90;;;;;;5062637;28;20177;-80
2022/11/27 06:19:24;;;;;;;0.10;0.10;;;5.30;99.90;;;;;;5061219;28;20225;-79
2022/11/27 06:21:49;;;;;;;0.10;0.10;;;5.20;99.90;;;;;;5061461;28;20968;-79
2022/11/27 06:24:15;;;;;;;0.10;0.10;;;5.20;99.90;;;;;;5062487;28;20307;-78
2022/11/27 06:26:41;;;;;;;0.00;0.00;;;5.30;99.90;;;;;;5063522;28;20207;-79
2022/11/27 06:29:07;;;;;;;0.10;0.10;;;5.20;99.90;;;;;;5062806;28;20247;-79
2022/11/27 06:31:33;;;;;;;0.10;0.10;;;5.10;99.90;;;;;;5082128;28;20653;-79
2022/11/27 06:33:59;;;;;;;0.10;0.10;;;5.00;99.90;;;;;;5064747;28;20214;-79
2022/11/27 06:36:33;;;;;;;7.67;6.13;;;5.10;99.90;;;;;;5065564;28;20184;-79
2022/11/27 06:39:00;;;;;;;0.10;0.10;;;5.20;99.90;;;;;;5065277;28;20247;-81
2022/11/27 06:41:26;;;;;;;0.10;0.10;;;5.10;99.90;;;;;;5066274;28;20181;-80
2022/11/27 06:43:53;;;;;;;0.10;0.10;;;5.00;99.90;;;;;;5066360;28;20209;-79
2022/11/27 06:46:20;;;;;;;0.10;0.10;;;5.20;99.90;;;;;;5067124;28;20199;-81
2022/11/27 06:48:49;;;;;;;0.10;0.10;;;5.20;99.90;;;;;;5065995;28;20260;-80
2022/11/27 06:51:16;;;;;;;0.10;0.10;;;5.30;99.90;;;;;;5065062;28;20552;-80
2022/11/27 06:53:43;;;;;;;0.10;0.10;;;5.40;99.90;;;;;;5065359;28;20250;-79
2022/11/27 06:56:12;;;;;;;0.10;0.10;;;5.40;99.90;;;;;;5063920;28;20187;-80
2022/11/27 06:58:38;;;;;;;0.00;0.00;;;5.40;99.90;;;;;;5066882;28;20247;-81
2022/11/27 07:01:06;;;;;;;0.07;0.07;;;5.40;99.90;;;;;;5067259;28;20252;-79
2022/11/27 07:03:32;;;;;;;0.03;0.03;;;5.50;99.90;;;;;;5067073;28;20197;-80
2022/11/27 07:06:02;;;;;;;0.10;0.10;;;5.40;99.90;;;;;;5067664;28;20209;-79
2022/11/27 07:08:28;;;;;;;0.00;0.00;;;5.40;99.90;;;;;;5065895;28;20847;-78
2022/11/27 07:10:59;;;;;;;0.03;0.03;;;5.50;99.90;;;;;;5067036;28;20189;-79
2022/11/27 07:13:25;;;;;;;0.10;0.10;;;5.60;99.90;;;;;;5066005;28;20322;-80
2022/11/27 07:15:50;;;;;;;0.07;0.07;;;5.80;99.90;;;;;;5064329;28;20214;-79
2022/11/27 07:18:16;;;;;;;0.03;0.03;;;5.90;99.90;;;;;;5063497;28;20188;-80
2022/11/27 07:20:41;;;;;;;0.10;0.10;;;6.00;99.90;;;;;;5066323;28;20218;-80
2022/11/27 07:23:07;;;;;;;0.10;0.10;;;6.10;99.90;;;;;;5066216;28;20189;-80
2022/11/27 07:25:32;;;;;;;0.10;0.10;;;6.10;99.90;;;;;;5065224;28;20205;-79
2022/11/27 07:27:58;;;;;;;0.00;0.00;;;6.00;99.90;;;;;;5064193;28;20200;-80
2022/11/27 07:30:24;;;;;;;0.10;0.10;;;6.10;99.90;;;;;;5064191;28;20213;-80
2022/11/27 07:32:49;;;;;;;0.10;0.10;;;6.20;99.90;;;;;;5064635;28;20569;-79
2022/11/27 07:35:15;;;;;;;0.10;0.10;;;6.10;99.90;;;;;;5062779;28;20231;-80
2022/11/27 07:37:40;;;;;;;0.10;0.10;;;6.10;99.90;;;;;;5080167;28;20185;-81
2022/11/27 07:40:06;;;;;;;0.10;0.10;;;6.20;99.90;;;;;;5080578;28;20190;-80
2022/11/27 07:42:32;;;;;;;0.00;0.00;;;6.20;99.90;;;;;;5091696;28;20189;-80
2022/11/27 07:44:57;;;;;;;0.10;0.10;;;6.30;99.90;;;;;;5075193;28;20354;-80
2022/11/27 07:47:23;;;;;;;0.00;0.00;;;5.80;99.90;;;;;;5071530;28;20215;-80
2022/11/27 07:49:49;;;;;;;1.33;1.27;;;5.40;99.90;;;;;;5071572;28;20223;-80
2022/11/27 07:52:14;;;;;;;0.10;0.10;;;5.10;99.90;;;;;;5071018;28;20201;-80
2022/11/27 07:54:40;;;;;;;0.10;0.10;;;5.10;99.90;;;;;;5069517;28;20236;-80
2022/11/27 07:57:05;;;;;;;0.10;0.10;;;5.10;99.90;;;;;;5069997;28;20203;-80
2022/11/27 07:59:31;;;;;;;0.10;0.10;;;5.30;99.90;;;;;;5071189;28;20193;-80
2022/11/27 08:01:56;;;;;;;0.10;0.10;;;5.60;99.90;;;;;;5070611;28;20527;-80
2022/11/27 08:04:23;;;;;;;0.10;0.10;;;5.70;99.90;;;;;;5072977;28;20205;-80
2022/11/27 08:06:49;;;;;;;0.10;0.10;;;5.80;99.90;;;;;;5071086;28;20182;-80
2022/11/27 08:09:14;;;;;;;0.10;0.10;;;5.90;99.90;;;;;;5064527;28;20213;-79
2022/11/27 08:11:40;;;;;;;0.00;0.00;;;6.10;99.90;;;;;;5061109;28;20189;-81
2022/11/27 08:14:06;;;;;;;0.10;0.10;;;6.20;99.90;;;;;;5058012;28;20212;-79
2022/11/27 08:16:33;;;;;;;0.10;0.10;;;6.20;99.90;;;;;;5063863;28;20280;-80
2022/11/27 08:18:59;;;;;;;0.10;0.10;;;6.30;99.90;;;;;;5066527;28;20185;-78
2022/11/27 08:21:25;;;;;;;0.10;0.10;;;6.30;99.90;;;;;;5063838;28;20200;-79
2022/11/27 08:23:51;;;;;;;0.00;0.00;;;6.40;99.90;;;;;;5066307;28;20287;-79
2022/11/27 08:26:17;;;;;;;0.10;0.10;;;6.60;99.90;;;;;;5065314;28;20604;-79
2022/11/27 08:28:43;;;;;;;0.10;0.10;;;6.60;99.90;;;;;;5064602;28;20206;-80
2022/11/27 08:31:11;;;;;;;0.10;0.10;;;6.70;99.90;;;;;;5064632;28;20188;-79
2022/11/27 08:33:36;;;;;;;0.10;0.10;;;6.70;99.90;;;;;;5065143;28;20214;-79
2022/11/27 08:36:03;;;;;;;0.10;0.10;;;6.40;99.90;;;;;;5065670;28;20193;-82
2022/11/27 08:38:28;;;;;;;0.10;0.10;;;6.50;99.90;;;;;;5066904;28;20181;-80
2022/11/27 08:41:00;;;;;;;0.10;0.10;;;6.50;99.90;;;;;;5065658;28;20635;-79
2022/11/27 08:43:26;;;;;;;0.10;0.10;;;6.30;99.90;;;;;;5066808;28;20276;-80
2022/11/27 08:45:52;;;;;;;0.10;0.10;;;5.80;99.90;;;;;;5066944;28;20284;-82
2022/11/27 08:48:18;;;;;;;0.10;0.10;;;5.70;99.90;;;;;;5065225;28;20207;-80
2022/11/27 08:50:44;;;;;;;0.10;0.10;;;5.70;99.90;;;;;;5065157;28;20176;-80
2022/11/27 08:53:11;;;;;;;0.10;0.10;;;6.00;99.90;;;;;;5068171;28;20747;-82
2022/11/27 08:55:36;;;;;;;0.10;0.10;;;6.10;99.90;;;;;;5064385;28;20283;-82
2022/11/27 08:58:02;;;;;;;0.10;0.10;;;5.90;99.90;;;;;;5064123;28;21147;-81
2022/11/27 09:00:31;;;;;;;0.10;0.10;;;6.20;99.90;;;;;;5063831;28;20693;-81
2022/11/27 09:03:00;;;;;;;0.10;0.10;;;6.10;99.90;;;;;;5062709;28;20203;-80
2022/11/27 09:05:27;;;;;;;0.10;0.10;;;6.30;99.90;;;;;;5064701;28;20208;-82
2022/11/27 09:07:53;;;;;;;0.10;0.10;;;6.20;99.90;;;;;;5064837;28;20181;-81
2022/11/27 09:10:19;;;;;;;0.10;0.10;;;6.40;99.90;;;;;;5061660;28;20205;-79
2022/11/27 09:12:44;;;;;;;0.10;0.10;;;6.50;99.90;;;;;;5062667;28;20263;-79
2022/11/27 09:15:11;;;;;;;0.10;0.10;;;6.70;99.90;;;;;;5062884;28;20217;-81
2022/11/27 09:17:37;;;;;;;0.10;0.10;;;6.70;99.90;;;;;;5062699;28;20188;-81
2022/11/27 09:20:04;;;;;;;0.10;0.10;;;6.50;99.90;;;;;;5064749;28;21323;-81
2022/11/27 09:22:30;;;;;;;0.10;0.10;;;6.30;99.90;;;;;;5062493;28;20189;-80
2022/11/27 09:24:55;;;;;;;0.00;0.00;;;6.10;99.90;;;;;;5061262;28;20232;-80
2022/11/27 09:27:21;;;;;;;0.00;0.00;;;6.30;99.90;;;;;;5061240;28;20279;-80
2022/11/27 09:29:46;;;;;;;0.10;0.10;;;5.90;99.90;;;;;;5063848;28;20254;-80
2022/11/27 09:32:12;;;;;;;0.10;0.10;;;6.10;99.90;;;;;;5062895;28;20238;-80
2022/11/27 09:34:37;;;;;;;0.10;0.10;;;6.40;99.90;;;;;;5060839;28;20204;-81
2022/11/27 09:37:03;;;;;;;0.10;0.10;;;6.60;99.90;;;;;;5060763;28;20559;-79
2022/11/27 09:39:32;;;;;;;0.10;0.10;;;6.70;99.90;;;;;;5060733;28;20574;-80
2022/11/27 09:42:01;;;;;;;0.10;0.10;;;6.80;99.90;;;;;;5061350;28;20192;-81
2022/11/27 09:44:42;;;;;;;0.10;0.10;;;7.00;99.90;;;;;;5060039;28;20205;-80
2022/11/27 09:47:16;;;;;;;0.10;0.10;;;6.50;99.90;;;;;;5059859;28;20217;-78
2022/11/27 09:49:48;;;;;;;0.00;0.00;;;6.10;99.90;;;;;;5058557;28;20326;-79
2022/11/27 09:52:24;;;;;;;0.10;0.10;;;6.10;99.90;;;;;;5061475;28;20195;-79
2022/11/27 09:55:08;;;;;;;0.10;0.10;;;6.20;99.90;;;;;;5062299;28;20208;-79
2022/11/27 09:57:37;;;;;;;0.10;0.10;;;5.80;99.90;;;;;;5059414;28;20829;-79
2022/11/27 10:00:13;;;;;;;0.10;0.10;;;5.20;99.90;;;;;;5077669;28;20195;-79
2022/11/27 10:02:41;;;;;;;0.10;0.10;;;5.50;99.90;;;;;;5062059;28;20184;-79
2022/11/27 10:05:34;;;;;;;0.10;0.10;;;5.80;99.90;;;;;;5059271;28;20216;-79
2022/11/27 10:08:18;;;;;;;0.10;0.10;;;5.70;99.90;;;;;;5060718;28;20199;-78
2022/11/27 10:11:30;;;;;;;0.10;0.10;;;5.50;99.90;;;;;;5062534;28;20185;-79
2022/11/27 10:14:04;;;;;;;0.10;0.10;;;5.10;99.90;;;;;;5057405;28;20340;-80
2022/11/27 10:17:02;;;;;;;0.10;0.10;;;4.90;99.90;;;;;;5059318;28;20215;-82
2022/11/27 10:19:58;;;;;;;0.10;0.10;;;4.90;99.90;;;;;;5060347;28;20275;-79
2022/11/27 10:23:11;;;;;;;0.10;0.10;;;5.50;99.90;;;;;;5048748;28;20191;-82
2022/11/27 10:25:44;;;;;;;0.10;0.10;;;5.80;99.90;;;;;;5018733;28;20214;-80
2022/11/27 10:28:09;;;;;;;0.00;0.00;;;5.80;99.90;;;;;;5051084;28;20220;-81
2022/11/27 10:30:42;;;;;;;0.10;0.10;;;5.30;99.90;;;;;;5061674;28;20619;-82
2022/11/27 10:33:17;;;;;;;2.40;2.30;;;5.30;99.90;;;;;;5064129;28;20242;-81
2022/11/27 10:35:46;;;;;;;0.00;0.00;;;5.10;99.90;;;;;;5065501;28;20242;-80
2022/11/27 10:38:34;;;;;;;0.10;0.10;;;5.40;99.90;;;;;;5063967;28;20267;-80
2022/11/27 10:41:09;;;;;;;1.40;1.40;;;5.60;99.90;;;;;;5081944;28;20359;-80
2022/11/27 10:43:34;;;;;;;0.10;0.10;;;5.00;99.90;;;;;;5063613;28;20191;-79
2022/11/27 10:46:10;;;;;;;0.10;0.10;;;5.20;99.90;;;;;;5065691;28;20187;-81
2022/11/27 10:48:36;;;;;;;0.63;0.63;;;5.30;99.90;;;;;;5065189;28;20207;-82
2022/11/27 10:51:01;;;;;;;0.10;0.10;;;5.60;99.90;;;;;;5064057;28;20183;-83
2022/11/27 10:53:36;;;;;;;0.10;0.10;;;5.80;99.90;;;;;;5065968;28;20242;-81
2022/11/27 10:56:10;;;;;;;0.10;0.10;;;6.10;99.90;;;;;;5064478;28;20234;-82
2022/11/27 10:58:45;;;;;;;0.10;0.10;;;5.90;99.90;;;;;;5064003;28;20171;-80
2022/11/27 11:01:17;;;;;;;0.10;0.10;;;5.90;99.90;;;;;;5063939;28;20192;-82
2022/11/27 11:03:42;;;;;;;0.10;0.10;;;5.70;99.90;;;;;;5064457;28;20204;-81
2022/11/27 11:06:19;;;;;;;0.00;0.00;;;5.90;99.90;;;;;;5065418;28;20177;-81
2022/11/27 11:08:44;;;;;;;0.00;0.00;;;6.00;99.90;;;;;;5065139;28;20212;-82
2022/11/27 11:11:10;;;;;;;0.10;0.10;;;6.30;99.90;;;;;;5064095;28;20218;-82
2022/11/27 11:13:46;;;;;;;0.00;0.00;;;6.80;99.90;;;;;;5065744;28;20193;-81
2022/11/27 11:16:11;;;;;;;0.10;0.10;;;7.10;99.90;;;;;;5067192;28;20807;-80
2022/11/27 11:18:54;;;;;;;0.10;0.10;;;7.40;99.90;;;;;;5067573;28;20181;-83
2022/11/27 11:21:39;;;;;;;0.10;0.10;;;7.40;99.90;;;;;;5070681;28;20269;-82
2022/11/27 11:24:17;;;;;;;0.10;0.10;;;7.30;99.90;;;;;;5085379;28;21018;-80
2022/11/27 11:27:13;;;;;;;0.10;0.10;;;7.90;99.90;;;;;;5068814;28;20179;-84
2022/11/27 11:29:40;;;;;;;0.10;0.10;;;8.60;99.90;;;;;;5059583;28;20224;-81
2022/11/27 11:32:12;;;;;;;2.77;2.67;;;8.70;99.90;;;;;;5067839;28;20328;-81
2022/11/27 11:34:51;;;;;;;0.00;0.00;;;8.90;99.90;;;;;;5065639;28;20202;-86
2022/11/27 11:37:31;;;;;;;0.10;0.10;;;9.00;99.90;;;;;;5066439;28;20209;-83
2022/11/27 11:40:04;;;;;;;0.10;0.10;;;9.10;99.90;;;;;;5066333;28;20271;-86
2022/11/27 11:42:33;;;;;;;0.07;0.07;;;9.00;99.90;;;;;;5070040;28;20193;-84
2022/11/27 11:45:16;;;;;;;0.10;0.10;;;9.00;99.90;;;;;;5069324;28;20585;-83
2022/11/27 11:47:46;;;;;;;0.10;0.10;;;9.10;99.90;;;;;;5072070;28;20244;-83
2022/11/27 11:50:17;;;;;;;0.10;0.10;;;8.60;99.90;;;;;;5073283;28;21748;-83
2022/11/27 11:52:51;;;;;;;0.10;0.10;;;8.80;99.90;;;;;;5070158;28;20185;-85
2022/11/27 11:55:29;;;;;;;0.10;0.10;;;9.00;99.90;;;;;;5069090;28;20650;-84
2022/11/27 11:58:09;;;;;;;0.10;0.10;;;9.30;99.90;;;;;;5068601;28;20190;-83
2022/11/27 12:00:45;;;;;;;0.10;0.10;;;9.30;99.90;;;;;;5075830;28;20757;-83
2022/11/27 12:03:32;;;;;;;0.10;0.10;;;8.50;99.90;;;;;;5072578;28;20184;-85
2022/11/27 12:06:03;;;;;;;0.10;0.10;;;8.50;99.90;;;;;;5070800;28;20182;-84
2022/11/27 12:08:38;;;;;;;0.10;0.10;;;8.70;99.90;;;;;;5074132;28;20210;-86
2022/11/27 12:11:13;;;;;;;0.10;0.10;;;8.60;99.90;;;;;;5074318;28;20183;-83
2022/11/27 12:14:14;;;;;;;0.10;0.10;;;8.70;99.90;;;;;;5074514;28;20212;-84
2022/11/27 12:16:39;;;;;;;0.10;0.10;;;8.50;99.90;;;;;;5024324;28;20196;-84
2022/11/27 12:19:36;;;;;;;0.10;0.10;;;8.40;99.90;;;;;;5073053;28;20187;-85
2022/11/27 12:22:36;;;;;;;0.10;0.10;;;8.50;99.90;;;;;;5074320;28;20219;-86
2022/11/27 12:25:31;;;;;;;0.10;0.10;;;8.50;99.90;;;;;;5073401;28;20208;-84
2022/11/27 12:28:23;;;;;;;0.10;0.10;;;8.70;99.90;;;;;;5073314;28;20644;-84
2022/11/27 12:31:07;;;;;;;0.10;0.10;;;8.30;99.90;;;;;;5051124;28;20291;-83
2022/11/27 12:34:04;;;;;;;0.10;0.10;;;8.50;99.90;;;;;;5069114;28;20213;-83
2022/11/27 12:36:57;;;;;;;0.10;0.10;;;8.70;99.90;;;;;;5071661;28;20198;-83
2022/11/27 12:39:52;;;;;;;0.10;0.10;;;8.70;99.90;;;;;;5070683;28;20301;-83
2022/11/27 12:42:31;;;;;;;0.10;0.10;;;8.20;99.90;;;;;;5039967;28;20319;-85
2022/11/27 12:44:59;;;;;;;0.10;0.10;;;8.10;99.90;;;;;;5072850;28;20261;-86
2022/11/27 12:48:01;;;;;;;0.00;0.00;;;8.20;99.90;;;;;;5072216;28;20239;-83
2022/11/27 12:50:42;;;;;;;0.10;0.10;;;8.40;99.90;;;;;;5038288;28;20224;-84
2022/11/27 12:53:23;;;;;;;0.10;0.10;;;8.50;99.90;;;;;;5068763;28;20232;-84
2022/11/27 12:56:00;;;;;;;0.10;0.10;;;8.50;99.90;;;;;;5066543;28;20196;-83
2022/11/27 12:58:31;;;;;;;0.10;0.10;;;8.50;99.90;;;;;;5070582;28;20208;-84
2022/11/27 13:01:08;;;;;;;0.10;0.10;;;8.50;99.90;;;;;;5070677;28;20196;-84
2022/11/27 13:03:50;;;;;;;0.10;0.10;;;8.50;99.90;;;;;;5069807;28;20667;-83
2022/11/27 13:06:20;;;;;;;0.10;0.10;;;8.60;99.90;;;;;;5068930;28;20276;-85
2022/11/27 13:09:03;;;;;;;0.10;0.10;;;8.60;99.90;;;;;;5070666;28;20257;-84
2022/11/27 13:11:36;;;;;;;0.10;0.10;;;8.70;99.90;;;;;;5070336;28;20215;-86
2022/11/27 13:14:11;;;;;;;0.10;0.10;;;8.00;99.90;;;;;;5067956;28;20225;-86
2022/11/27 13:16:50;;;;;;;0.10;0.10;;;8.30;99.90;;;;;;5067332;28;20187;-86